Current Weather

Diori Hamani

Diori Hamani, Niger (DRRN)

Report from: Monday, May 23, 2022 7:00 AM WAT
Current time: Monday, May 23, 2022 8:20 AM WAT

Nearby weather
Weather history
Weather forecast

Temperature24.0°C (75.2°F)
Dew point19.0°C (66.2°F)
Winds 8 kts (4.1 m/s, 9.2 mph) West-Southwest (250°)
Clouds Sky clear
Altimeter29.91 in.Hg (1013 mB)
Relative humidity74 %
Density altitude1,352 ft. (412 m)
Remarks Ceiling and visibility OK
No significant changes expected in the next two hours
Flight conditions Visual Meteorological Conditions
Raw dataDRRN 230600Z 25008KT CAVOK 24/19 Q1013 NOSIG
An error has occurred. This application may no longer respond until reloaded. Reload 🗙